East River — WDB4477 — position and weather

sailwx.info

Track history (hours):
 
Tides and Currents Weather Stations Pressure Air Temp Water Temp Dewpoint Dewpoint Depression Visibility Wind Speed Wind Dir Waves Ship Positions

East River

Owner: Great Lakes Dredge & Dock Company, Oak Brook, IL. More information available from US FCC via Universal Licensing System and Coast Guard Vessel Documentation Center.

Last reported at 2017-Dec-09 19:41 UTC. Time now 2017-Dec-16 11:17 UTC.
Position N 34°43' W 076°52'.

MMSI: 366898790.

Date/timePositionNaut miles runAvg speedWind from/ knotsBaromVisibWave heightAir tempDewpointWater temp
2017-Dec-09 19:41N 34°43' W 076°52'317.5
2017-Dec-09 19:30N 34°43' W 076°48'612.6
2017-Dec-09 19:01N 34°45' W 076°41'611.5
2017-Dec-09 18:30N 34°51' W 076°41'115 4.2
2017-Dec-08 15:08N 36°43' W 076°14'1 4.6
2017-Dec-08 15:00N 36°43' W 076°15'0 0.6
2017-Dec-08 14:27N 36°43' W 076°15'0 0.8
2017-Dec-08 14:00N 36°44' W 076°15'3 7.1
2017-Dec-08 13:30N 36°46' W 076°18'0 0.3
2017-Dec-08 13:00N 36°47' W 076°18'3 6.8
2017-Dec-08 12:30N 36°50' W 076°18'1 2.7
2017-Dec-08 12:00N 36°50' W 076°16'0 0.0
2017-Dec-07 21:11N 36°50' W 076°16'0 2.0
2017-Dec-07 21:00N 36°50' W 076°16'1 2.0
2017-Dec-07 20:24N 36°50' W 076°18'  
2017-Dec-01 22:32N 36°50' W 076°16'0 0.1
2017-Dec-01 22:28N 36°50' W 076°16'0 1.1
2017-Dec-01 22:00N 36°50' W 076°17'0 0.0
2017-Dec-01 21:31N 36°50' W 076°17'0 0.0
2017-Dec-01 21:01N 36°50' W 076°17'0 0.0
2017-Dec-01 20:30N 36°50' W 076°17'3 6.7
2017-Dec-01 20:01N 36°52' W 076°20'  
Track history (hours):
 
Tides and Currents Weather Stations Pressure Air Temp Water Temp Dewpoint Dewpoint Depression Visibility Wind Speed Wind Dir Waves Ship Positions

East River

Owner: Great Lakes Dredge & Dock Company, Oak Brook, IL. More information available from US FCC via Universal Licensing System and Coast Guard Vessel Documentation Center.

Last reported at 2017-Dec-09 19:41 UTC. Time now 2017-Dec-16 11:17 UTC.
Position N 34°43' W 076°52'.

MMSI: 366898790.

Date/timePositionNaut miles runAvg speedWind from/ knotsBaromVisibWave heightAir tempDewpointWater temp
2017-Dec-09 19:41N 34°43' W 076°52'317.5
2017-Dec-09 19:30N 34°43' W 076°48'612.6
2017-Dec-09 19:01N 34°45' W 076°41'611.5
2017-Dec-09 18:30N 34°51' W 076°41'115 4.2
2017-Dec-08 15:08N 36°43' W 076°14'1 4.6
2017-Dec-08 15:00N 36°43' W 076°15'0 0.6
2017-Dec-08 14:27N 36°43' W 076°15'0 0.8
2017-Dec-08 14:00N 36°44' W 076°15'3 7.1
2017-Dec-08 13:30N 36°46' W 076°18'0 0.3
2017-Dec-08 13:00N 36°47' W 076°18'3 6.8
2017-Dec-08 12:30N 36°50' W 076°18'1 2.7
2017-Dec-08 12:00N 36°50' W 076°16'0 0.0
2017-Dec-07 21:11N 36°50' W 076°16'0 2.0
2017-Dec-07 21:00N 36°50' W 076°16'1 2.0
2017-Dec-07 20:24N 36°50' W 076°18'  
2017-Dec-01 22:32N 36°50' W 076°16'0 0.1
2017-Dec-01 22:28N 36°50' W 076°16'0 1.1
2017-Dec-01 22:00N 36°50' W 076°17'0 0.0
2017-Dec-01 21:31N 36°50' W 076°17'0 0.0
2017-Dec-01 21:01N 36°50' W 076°17'0 0.0
2017-Dec-01 20:30N 36°50' W 076°17'3 6.7
2017-Dec-01 20:01N 36°52' W 076°20'  

Dump ship's entire track history